PWSweather.com
Personal Weather Stations
Station Observations
CAPEBRETON
Mira Road, Sydney, NS

Mira RoadSydney, NS

Lat: 46.1207292, Lon: -60.1594642

Elevation: 175

Station Type: LaCrosse Weather Pro Center 2800 Series

http://pwscapebreton.weebly.com/

Latest ConditionsUpdated 8:12:43 PM GMT-04:56 Saturday, Oct 25, 2014
Currently Today's Max Today's Min Today's Average
Temperature 49.5°F9.7°C 55.1°F12.8°C 49.5°F9.7°C 52.6°F11.4°C
Dew Point 48.1°F8.9°C 53.9°F12.2°C 47.8°F8.8°C 51.2°F10.7°C
Winds 0.2 mph ESE0.3 kmh ESE 2.4 mph NE3.9 kmh NE - 0.7 mph 1.1 kmh
Wind Gusts 0.2 mph0.3 kmh 4.7 mph7.6 kmh - -
Humidity 95% 96% 93% 95%
Pressure 29.45 in997.3 mb 29.45 in997.3 mb 29.30 in992.2 mb -
Precipitation - 0.23 in5.8 mm - -
Hour Temp Dew Point Humidity Winds Wind Gusts Pressure Precip Precip Rate Daily Precip Total
08:12 PM 49.5°F9.7°C 48.1°F8.9°C 95% 0.2 mph ESE0.3 kmh ESE 0.2 mph0.3 kmh 29.45 in997.3 mb 0.00 in0.0 mm 0.00 in/hr0.0 mm/hr 0.23 in5.8 mm
08:07 PM 49.5°F9.7°C 47.8°F8.8°C 94% Calm Calm 0.7 mph1.1 kmh 29.45 in997.3 mb 0.00 in0.0 mm 0.00 in/hr0.0 mm/hr 0.23 in5.8 mm
08:02 PM 49.5°F9.7°C 47.8°F8.8°C 94% 0.3 mph SE0.5 kmh SE 0.7 mph1.1 kmh 29.45 in997.3 mb 0.00 in0.0 mm 0.00 in/hr0.0 mm/hr 0.23 in5.8 mm
07:57 PM 49.5°F9.7°C 47.8°F8.8°C 94% Calm Calm -- 29.45 in997.3 mb 0.00 in0.0 mm 0.00 in/hr0.0 mm/hr 0.23 in5.8 mm
07:52 PM 49.7°F9.8°C 48.0°F8.9°C 94% Calm Calm -- 29.44 in997.0 mb 0.00 in0.0 mm 0.00 in/hr0.0 mm/hr 0.23 in5.8 mm
07:47 PM 49.7°F9.8°C 48.0°F8.9°C 94% Calm Calm -- 29.44 in997.0 mb 0.01 in0.3 mm 0.00 in/hr0.0 mm/hr 0.23 in5.8 mm
07:42 PM 49.7°F9.8°C 48.0°F8.9°C 94% Calm Calm 0.4 mph0.6 kmh 29.44 in997.0 mb 0.01 in0.3 mm 0.00 in/hr0.0 mm/hr 0.23 in5.8 mm
07:37 PM 49.5°F9.7°C 47.8°F8.8°C 94% 0.2 mph ESE0.3 kmh ESE 0.4 mph0.6 kmh 29.44 in997.0 mb 0.01 in0.3 mm 0.00 in/hr0.0 mm/hr 0.23 in5.8 mm
07:32 PM 49.7°F9.8°C 48.0°F8.9°C 94% 0.2 mph NNE0.3 kmh NNE 0.4 mph0.6 kmh 29.44 in997.0 mb 0.01 in0.3 mm 0.00 in/hr0.0 mm/hr 0.23 in5.8 mm
07:27 PM 49.5°F9.7°C 47.8°F8.8°C 94% Calm Calm 0.7 mph1.1 kmh 29.44 in997.0 mb 0.01 in0.3 mm 0.00 in/hr0.0 mm/hr 0.23 in5.8 mm
07:22 PM 49.5°F9.7°C 47.8°F8.8°C 94% Calm Calm 0.7 mph1.1 kmh 29.44 in997.0 mb 0.01 in0.3 mm 0.00 in/hr0.0 mm/hr 0.23 in5.8 mm
07:17 PM 49.5°F9.7°C 47.8°F8.8°C 94% 0.2 mph ESE0.3 kmh ESE 0.2 mph0.3 kmh 29.44 in997.0 mb 0.01 in0.3 mm 0.00 in/hr0.0 mm/hr 0.23 in5.8 mm
07:12 PM 49.5°F9.7°C 47.8°F8.8°C 94% Calm Calm -- 29.44 in997.0 mb 0.01 in0.3 mm 0.00 in/hr0.0 mm/hr 0.23 in5.8 mm
07:07 PM 49.5°F9.7°C 47.8°F8.8°C 94% Calm Calm -- 29.44 in997.0 mb 0.01 in0.3 mm 0.00 in/hr0.0 mm/hr 0.23 in5.8 mm
07:02 PM 49.5°F9.7°C 47.8°F8.8°C 94% Calm Calm -- 29.44 in997.0 mb 0.01 in0.3 mm 0.00 in/hr0.0 mm/hr 0.23 in5.8 mm
06:57 PM 49.5°F9.7°C 47.8°F8.8°C 94% Calm Calm -- 29.44 in997.0 mb 0.01 in0.3 mm 0.12 in/hr3.0 mm/hr 0.23 in5.8 mm
06:52 PM 49.5°F9.7°C 47.8°F8.8°C 94% Calm Calm -- 29.44 in997.0 mb 0.00 in0.0 mm 0.00 in/hr0.0 mm/hr 0.22 in5.6 mm
06:47 PM 49.5°F9.7°C 47.8°F8.8°C 94% Calm Calm -- 29.44 in997.0 mb 0.00 in0.0 mm 0.00 in/hr0.0 mm/hr 0.22 in5.6 mm
06:42 PM 49.5°F9.7°C 47.8°F8.8°C 94% Calm Calm 0.7 mph1.1 kmh 29.44 in997.0 mb 0.00 in0.0 mm 0.00 in/hr0.0 mm/hr 0.22 in5.6 mm
06:37 PM 49.5°F9.7°C 47.8°F8.8°C 94% Calm Calm 0.9 mph1.4 kmh 29.43 in996.6 mb 0.00 in0.0 mm 0.00 in/hr0.0 mm/hr 0.22 in5.6 mm
06:32 PM 49.5°F9.7°C 47.8°F8.8°C 94% 0.6 mph SE1.0 kmh SE 0.9 mph1.4 kmh 29.43 in996.6 mb 0.00 in0.0 mm 0.00 in/hr0.0 mm/hr 0.22 in5.6 mm
06:27 PM 49.5°F9.7°C 47.8°F8.8°C 94% 0.4 mph SE0.6 kmh SE 0.7 mph1.1 kmh 29.43 in996.6 mb 0.00 in0.0 mm 0.00 in/hr0.0 mm/hr 0.22 in5.6 mm
06:22 PM 49.5°F9.7°C 47.8°F8.8°C 94% Calm Calm 1.1 mph1.8 kmh 29.43 in996.6 mb 0.00 in0.0 mm 0.00 in/hr0.0 mm/hr 0.22 in5.6 mm
06:17 PM 49.5°F9.7°C 47.8°F8.8°C 94% 0.4 mph SSE0.6 kmh SSE 1.8 mph2.9 kmh 29.43 in996.6 mb 0.00 in0.0 mm 0.00 in/hr0.0 mm/hr 0.22 in5.6 mm
06:12 PM 49.5°F9.7°C 47.8°F8.8°C 94% 0.7 mph E1.1 kmh E 1.8 mph2.9 kmh 29.43 in996.6 mb 0.00 in0.0 mm 0.00 in/hr0.0 mm/hr 0.22 in5.6 mm
06:07 PM 49.5°F9.7°C 47.8°F8.8°C 94% 0.2 mph NE0.3 kmh NE 1.8 mph2.9 kmh 29.42 in996.3 mb 0.00 in0.0 mm 0.00 in/hr0.0 mm/hr 0.22 in5.6 mm
06:02 PM 49.5°F9.7°C 47.8°F8.8°C 94% 0.9 mph ESE1.4 kmh ESE 1.8 mph2.9 kmh 29.42 in996.3 mb 0.00 in0.0 mm 0.00 in/hr0.0 mm/hr 0.22 in5.6 mm
05:57 PM 49.7°F9.8°C 48.0°F8.9°C 94% 0.5 mph SE0.8 kmh SE 1.8 mph2.9 kmh 29.42 in996.3 mb 0.00 in0.0 mm 0.00 in/hr0.0 mm/hr 0.22 in5.6 mm
05:52 PM 49.7°F9.8°C 48.0°F8.9°C 94% 0.3 mph NNE0.5 kmh NNE 1.8 mph2.9 kmh 29.42 in996.3 mb 0.00 in0.0 mm 0.00 in/hr0.0 mm/hr 0.22 in5.6 mm
05:47 PM 49.5°F9.7°C 47.8°F8.8°C 94% 0.6 mph SE1.0 kmh SE 1.3 mph2.1 kmh 29.42 in996.3 mb 0.00 in0.0 mm 0.00 in/hr0.0 mm/hr 0.22 in5.6 mm
05:42 PM 49.7°F9.8°C 48.0°F8.9°C 94% 0.7 mph ESE1.1 kmh ESE 1.3 mph2.1 kmh 29.42 in996.3 mb 0.00 in0.0 mm 0.00 in/hr0.0 mm/hr 0.22 in5.6 mm
05:37 PM 49.7°F9.8°C 48.0°F8.9°C 94% 0.4 mph NE0.6 kmh NE 1.3 mph2.1 kmh 29.42 in996.3 mb 0.00 in0.0 mm 0.00 in/hr0.0 mm/hr 0.22 in5.6 mm
05:32 PM 49.5°F9.7°C 47.8°F8.8°C 94% 0.3 mph ENE0.5 kmh ENE 1.3 mph2.1 kmh 29.42 in996.3 mb 0.00 in0.0 mm 0.00 in/hr0.0 mm/hr 0.22 in5.6 mm
05:27 PM 49.5°F9.7°C 47.8°F8.8°C 94% 0.5 mph 0.8 kmh 1.1 mph1.8 kmh 29.42 in996.3 mb 0.01 in0.3 mm 0.00 in/hr0.0 mm/hr 0.22 in5.6 mm
05:22 PM 49.5°F9.7°C 47.8°F8.8°C 94% 0.7 mph 1.1 kmh 1.1 mph1.8 kmh 29.41 in995.9 mb 0.01 in0.3 mm 0.00 in/hr0.0 mm/hr 0.22 in5.6 mm
05:17 PM 49.5°F9.7°C 47.8°F8.8°C 94% 0.7 mph NNE1.1 kmh NNE 1.1 mph1.8 kmh 29.41 in995.9 mb 0.01 in0.3 mm 0.00 in/hr0.0 mm/hr 0.22 in5.6 mm
05:12 PM 49.5°F9.7°C 47.8°F8.8°C 94% 0.5 mph ENE0.8 kmh ENE 2.5 mph4.0 kmh 29.41 in995.9 mb 0.01 in0.3 mm 0.00 in/hr0.0 mm/hr 0.22 in5.6 mm
05:07 PM 49.7°F9.8°C 48.0°F8.9°C 94% 1.0 mph N1.6 kmh N 2.5 mph4.0 kmh 29.41 in995.9 mb 0.01 in0.3 mm 0.00 in/hr0.0 mm/hr 0.22 in5.6 mm
05:02 PM 49.7°F9.8°C 48.0°F8.9°C 94% 1.2 mph E1.9 kmh E 4.3 mph6.9 kmh 29.41 in995.9 mb 0.01 in0.3 mm 0.00 in/hr0.0 mm/hr 0.22 in5.6 mm
04:57 PM 49.7°F9.8°C 48.0°F8.9°C 94% 0.8 mph 1.3 kmh 4.3 mph6.9 kmh 29.40 in995.6 mb 0.01 in0.3 mm 0.00 in/hr0.0 mm/hr 0.22 in5.6 mm
04:52 PM 49.9°F9.9°C 48.2°F9.0°C 94% 1.0 mph N1.6 kmh N 3.6 mph5.8 kmh 29.40 in995.6 mb 0.01 in0.3 mm 0.00 in/hr0.0 mm/hr 0.22 in5.6 mm
04:47 PM 50.0°F10.0°C 48.3°F9.1°C 94% 1.1 mph N1.8 kmh N 3.6 mph5.8 kmh 29.40 in995.6 mb 0.01 in0.3 mm 0.00 in/hr0.0 mm/hr 0.22 in5.6 mm
04:42 PM 50.0°F10.0°C 48.3°F9.1°C 94% 1.3 mph NNE2.1 kmh NNE 1.8 mph2.9 kmh 29.40 in995.6 mb 0.01 in0.3 mm 0.00 in/hr0.0 mm/hr 0.22 in5.6 mm
04:37 PM 50.0°F10.0°C 48.3°F9.1°C 94% 1.1 mph N1.8 kmh N 1.8 mph2.9 kmh 29.40 in995.6 mb 0.01 in0.3 mm 0.12 in/hr3.0 mm/hr 0.22 in5.6 mm
04:32 PM 50.0°F10.0°C 48.3°F9.1°C 94% 0.4 mph N0.6 kmh N 1.8 mph2.9 kmh 29.40 in995.6 mb 0.00 in0.0 mm 0.00 in/hr0.0 mm/hr 0.21 in5.3 mm
04:27 PM 50.0°F10.0°C 48.3°F9.1°C 94% 0.8 mph E1.3 kmh E 2.0 mph3.2 kmh 29.40 in995.6 mb 0.00 in0.0 mm 0.00 in/hr0.0 mm/hr 0.21 in5.3 mm
04:22 PM 50.0°F10.0°C 48.3°F9.1°C 94% 0.9 mph N1.4 kmh N 2.5 mph4.0 kmh 29.40 in995.6 mb 0.00 in0.0 mm 0.00 in/hr0.0 mm/hr 0.21 in5.3 mm
04:17 PM 50.0°F10.0°C 48.3°F9.1°C 94% 1.0 mph ENE1.6 kmh ENE 2.5 mph4.0 kmh 29.40 in995.6 mb 0.00 in0.0 mm 0.00 in/hr0.0 mm/hr 0.21 in5.3 mm
04:12 PM 50.2°F10.1°C 48.5°F9.2°C 94% 1.0 mph NE1.6 kmh NE 3.4 mph5.5 kmh 29.40 in995.6 mb 0.00 in0.0 mm 0.00 in/hr0.0 mm/hr 0.21 in5.3 mm
04:07 PM 50.2°F10.1°C 48.5°F9.2°C 94% 1.3 mph N2.1 kmh N 3.4 mph5.5 kmh 29.39 in995.3 mb 0.00 in0.0 mm 0.00 in/hr0.0 mm/hr 0.21 in5.3 mm
04:02 PM 50.2°F10.1°C 48.5°F9.2°C 94% 0.7 mph ESE1.1 kmh ESE 2.2 mph3.5 kmh 29.40 in995.6 mb 0.00 in0.0 mm 0.00 in/hr0.0 mm/hr 0.21 in5.3 mm
03:57 PM 50.4°F10.2°C 48.7°F9.3°C 94% 0.8 mph N1.3 kmh N 2.2 mph3.5 kmh 29.39 in995.3 mb 0.00 in0.0 mm 0.00 in/hr0.0 mm/hr 0.21 in5.3 mm
03:52 PM 50.4°F10.2°C 48.7°F9.3°C 94% 1.6 mph N2.6 kmh N 2.2 mph3.5 kmh 29.39 in995.3 mb 0.00 in0.0 mm 0.00 in/hr0.0 mm/hr 0.21 in5.3 mm
03:47 PM 50.4°F10.2°C 48.7°F9.3°C 94% 1.7 mph N2.7 kmh N 2.2 mph3.5 kmh 29.39 in995.3 mb 0.00 in0.0 mm 0.00 in/hr0.0 mm/hr 0.21 in5.3 mm
03:42 PM 50.6°F10.3°C 48.9°F9.4°C 94% 1.2 mph 1.9 kmh 2.2 mph3.5 kmh 29.39 in995.3 mb 0.00 in0.0 mm 0.00 in/hr0.0 mm/hr 0.21 in5.3 mm
03:37 PM 50.6°F10.3°C 48.9°F9.4°C 94% 1.8 mph N2.9 kmh N 2.0 mph3.2 kmh 29.39 in995.3 mb 0.00 in0.0 mm 0.00 in/hr0.0 mm/hr 0.21 in5.3 mm
03:32 PM 50.8°F10.4°C 49.1°F9.5°C 94% 1.1 mph N1.8 kmh N 1.8 mph2.9 kmh 29.38 in994.9 mb 0.00 in0.0 mm 0.00 in/hr0.0 mm/hr 0.21 in5.3 mm
03:27 PM 50.9°F10.5°C 49.2°F9.6°C 94% 0.7 mph N1.1 kmh N 1.8 mph2.9 kmh 29.38 in994.9 mb 0.00 in0.0 mm 0.00 in/hr0.0 mm/hr 0.21 in5.3 mm
03:22 PM 50.9°F10.5°C 49.2°F9.6°C 94% 1.0 mph NE1.6 kmh NE 2.5 mph4.0 kmh 29.38 in994.9 mb 0.00 in0.0 mm 0.00 in/hr0.0 mm/hr 0.21 in5.3 mm
03:17 PM 51.1°F10.6°C 49.4°F9.7°C 94% 0.7 mph N1.1 kmh N 2.9 mph4.7 kmh 29.38 in994.9 mb 0.00 in0.0 mm 0.00 in/hr0.0 mm/hr 0.21 in5.3 mm
03:12 PM 51.3°F10.7°C 49.6°F9.8°C 94% 1.0 mph NNE1.6 kmh NNE 3.1 mph5.0 kmh 29.37 in994.6 mb 0.00 in0.0 mm 0.00 in/hr0.0 mm/hr 0.21 in5.3 mm
03:07 PM 51.3°F10.7°C 49.3°F9.6°C 93% 1.6 mph N2.6 kmh N 3.1 mph5.0 kmh 29.37 in994.6 mb 0.00 in0.0 mm 0.00 in/hr0.0 mm/hr 0.21 in5.3 mm
03:02 PM 51.5°F10.8°C 49.5°F9.7°C 93% 1.6 mph N2.6 kmh N 4.7 mph7.6 kmh 29.37 in994.6 mb 0.00 in0.0 mm 0.00 in/hr0.0 mm/hr 0.21 in5.3 mm
02:57 PM 51.5°F10.8°C 49.5°F9.7°C 93% 2.3 mph ENE3.7 kmh ENE 4.7 mph7.6 kmh 29.37 in994.6 mb 0.00 in0.0 mm 0.00 in/hr0.0 mm/hr 0.21 in5.3 mm
02:52 PM 51.8°F11.0°C 49.9°F9.9°C 93% 1.0 mph NNE1.6 kmh NNE 1.8 mph2.9 kmh 29.37 in994.6 mb 0.00 in0.0 mm 0.00 in/hr0.0 mm/hr 0.21 in5.3 mm
02:47 PM 51.8°F11.0°C 49.9°F9.9°C 93% 1.5 mph E2.4 kmh E 2.7 mph4.3 kmh 29.37 in994.6 mb 0.00 in0.0 mm 0.00 in/hr0.0 mm/hr 0.21 in5.3 mm
02:41 PM 52.0°F11.1°C 50.1°F10.1°C 93% 1.1 mph NNE1.8 kmh NNE 3.6 mph5.8 kmh 29.36 in994.2 mb 0.00 in0.0 mm 0.00 in/hr0.0 mm/hr 0.21 in5.3 mm
02:36 PM 52.2°F11.2°C 50.2°F10.1°C 93% 1.7 mph E2.7 kmh E 3.6 mph5.8 kmh 29.36 in994.2 mb 0.00 in0.0 mm 0.00 in/hr0.0 mm/hr 0.21 in5.3 mm
02:31 PM 52.4°F11.3°C 50.4°F10.2°C 93% 1.1 mph N1.8 kmh N 3.6 mph5.8 kmh 29.36 in994.2 mb 0.00 in0.0 mm 0.00 in/hr0.0 mm/hr 0.21 in5.3 mm
02:26 PM 52.4°F11.3°C 50.4°F10.2°C 93% 1.0 mph ENE1.6 kmh ENE 2.5 mph4.0 kmh 29.36 in994.2 mb 0.00 in0.0 mm 0.00 in/hr0.0 mm/hr 0.21 in5.3 mm
02:21 PM 52.2°F11.2°C 50.2°F10.1°C 93% 1.3 mph E2.1 kmh E 3.1 mph5.0 kmh 29.36 in994.2 mb 0.00 in0.0 mm 0.00 in/hr0.0 mm/hr 0.21 in5.3 mm
02:16 PM 52.4°F11.3°C 50.4°F10.2°C 93% 1.8 mph E2.9 kmh E 4.0 mph6.4 kmh 29.36 in994.2 mb 0.00 in0.0 mm 0.00 in/hr0.0 mm/hr 0.21 in5.3 mm
02:11 PM 52.6°F11.4°C 50.6°F10.3°C 93% 1.6 mph E2.6 kmh E 4.0 mph6.4 kmh 29.36 in994.2 mb 0.00 in0.0 mm 0.00 in/hr0.0 mm/hr 0.21 in5.3 mm
02:06 PM 52.7°F11.5°C 50.8°F10.4°C 93% 2.1 mph N3.4 kmh N 4.0 mph6.4 kmh 29.36 in994.2 mb 0.00 in0.0 mm 0.00 in/hr0.0 mm/hr 0.21 in5.3 mm
02:01 PM 52.9°F11.6°C 51.5°F10.8°C 95% 1.8 mph N2.9 kmh N 4.0 mph6.4 kmh 29.35 in993.9 mb 0.00 in0.0 mm 0.00 in/hr0.0 mm/hr 0.21 in5.3 mm
01:56 PM 53.1°F11.7°C 51.7°F10.9°C 95% 1.2 mph E1.9 kmh E 4.0 mph6.4 kmh 29.36 in994.2 mb 0.00 in0.0 mm 0.00 in/hr0.0 mm/hr 0.21 in5.3 mm
01:51 PM 53.3°F11.8°C 51.6°F10.9°C 94% 2.0 mph SE3.2 kmh SE 3.4 mph5.5 kmh 29.36 in994.2 mb 0.00 in0.0 mm 0.00 in/hr0.0 mm/hr 0.21 in5.3 mm
01:46 PM 53.1°F11.7°C 51.7°F10.9°C 95% 1.3 mph E2.1 kmh E 3.8 mph6.1 kmh 29.36 in994.2 mb 0.00 in0.0 mm 0.00 in/hr0.0 mm/hr 0.21 in5.3 mm
01:41 PM 53.1°F11.7°C 51.7°F10.9°C 95% 1.4 mph NE2.3 kmh NE 3.8 mph6.1 kmh 29.35 in993.9 mb 0.00 in0.0 mm 0.00 in/hr0.0 mm/hr 0.21 in5.3 mm
01:36 PM 52.9°F11.6°C 51.5°F10.8°C 95% 2.4 mph NE3.9 kmh NE 4.5 mph7.2 kmh 29.35 in993.9 mb 0.00 in0.0 mm 0.00 in/hr0.0 mm/hr 0.21 in5.3 mm
01:31 PM 53.1°F11.7°C 51.4°F10.8°C 94% 2.2 mph ESE3.5 kmh ESE 4.5 mph7.2 kmh 29.35 in993.9 mb 0.00 in0.0 mm 0.00 in/hr0.0 mm/hr 0.21 in5.3 mm
01:26 PM 53.3°F11.8°C 51.8°F11.0°C 95% 1.0 mph NNE1.6 kmh NNE 4.3 mph6.9 kmh 29.35 in993.9 mb 0.00 in0.0 mm 0.00 in/hr0.0 mm/hr 0.21 in5.3 mm
01:21 PM 53.5°F11.9°C 52.0°F11.1°C 95% 1.8 mph ENE2.9 kmh ENE 3.6 mph5.8 kmh 29.35 in993.9 mb 0.00 in0.0 mm 0.00 in/hr0.0 mm/hr 0.21 in5.3 mm
01:16 PM 53.3°F11.8°C 51.8°F11.0°C 95% 1.1 mph ENE1.8 kmh ENE 3.6 mph5.8 kmh 29.35 in993.9 mb 0.00 in0.0 mm 0.00 in/hr0.0 mm/hr 0.21 in5.3 mm
01:11 PM 53.3°F11.8°C 51.8°F11.0°C 95% 1.5 mph E2.4 kmh E 3.6 mph5.8 kmh 29.35 in993.9 mb 0.00 in0.0 mm 0.00 in/hr0.0 mm/hr 0.21 in5.3 mm
01:06 PM 53.5°F11.9°C 52.0°F11.1°C 95% 0.8 mph NE1.3 kmh NE 3.4 mph5.5 kmh 29.35 in993.9 mb 0.00 in0.0 mm 0.00 in/hr0.0 mm/hr 0.21 in5.3 mm
01:01 PM 53.6°F12.0°C 52.2°F11.2°C 95% 1.7 mph NNE2.7 kmh NNE 4.0 mph6.4 kmh 29.35 in993.9 mb 0.00 in0.0 mm 0.00 in/hr0.0 mm/hr 0.21 in5.3 mm
12:56 PM 54.0°F12.2°C 52.6°F11.4°C 95% 1.5 mph S2.4 kmh S 4.0 mph6.4 kmh 29.35 in993.9 mb 0.00 in0.0 mm 0.00 in/hr0.0 mm/hr 0.21 in5.3 mm
12:51 PM 54.4°F12.4°C 52.9°F11.6°C 95% 1.1 mph NNE1.8 kmh NNE 1.8 mph2.9 kmh 29.35 in993.9 mb 0.00 in0.0 mm 0.00 in/hr0.0 mm/hr 0.21 in5.3 mm
12:46 PM 54.0°F12.2°C 52.6°F11.4°C 95% 1.4 mph NE2.3 kmh NE 3.1 mph5.0 kmh 29.35 in993.9 mb 0.00 in0.0 mm 0.00 in/hr0.0 mm/hr 0.21 in5.3 mm
12:41 PM 53.8°F12.1°C 52.4°F11.3°C 95% 1.8 mph N2.9 kmh N 3.1 mph5.0 kmh 29.35 in993.9 mb 0.00 in0.0 mm 0.00 in/hr0.0 mm/hr 0.21 in5.3 mm
12:36 PM 53.8°F12.1°C 52.4°F11.3°C 95% 1.5 mph E2.4 kmh E 3.6 mph5.8 kmh 29.34 in993.6 mb 0.00 in0.0 mm 0.00 in/hr0.0 mm/hr 0.21 in5.3 mm
12:31 PM 53.8°F12.1°C 52.4°F11.3°C 95% 2.0 mph N3.2 kmh N 3.6 mph5.8 kmh 29.34 in993.6 mb 0.00 in0.0 mm 0.00 in/hr0.0 mm/hr 0.21 in5.3 mm
12:26 PM 54.0°F12.2°C 52.6°F11.4°C 95% 1.5 mph ENE2.4 kmh ENE 3.4 mph5.5 kmh 29.34 in993.6 mb 0.01 in0.3 mm 0.00 in/hr0.0 mm/hr 0.21 in5.3 mm
12:21 PM 54.2°F12.3°C 52.7°F11.5°C 95% 1.4 mph ENE2.3 kmh ENE 2.7 mph4.3 kmh 29.34 in993.6 mb 0.01 in0.3 mm 0.00 in/hr0.0 mm/hr 0.21 in5.3 mm
12:16 PM 54.2°F12.3°C 52.7°F11.5°C 95% 1.1 mph N1.8 kmh N 3.4 mph5.5 kmh 29.34 in993.6 mb 0.01 in0.3 mm 0.00 in/hr0.0 mm/hr 0.21 in5.3 mm
12:11 PM 54.2°F12.3°C 52.7°F11.5°C 95% 1.3 mph N2.1 kmh N 3.4 mph5.5 kmh 29.34 in993.6 mb 0.01 in0.3 mm 0.00 in/hr0.0 mm/hr 0.21 in5.3 mm
12:06 PM 54.0°F12.2°C 52.8°F11.6°C 96% 1.1 mph N1.8 kmh N 2.7 mph4.3 kmh 29.34 in993.6 mb 0.01 in0.3 mm 0.00 in/hr0.0 mm/hr 0.21 in5.3 mm
12:01 PM 54.2°F12.3°C 53.0°F11.7°C 96% 1.4 mph NE2.3 kmh NE 2.7 mph4.3 kmh 29.34 in993.6 mb 0.01 in0.3 mm 0.00 in/hr0.0 mm/hr 0.21 in5.3 mm
11:56 AM 54.2°F12.3°C 53.0°F11.7°C 96% 1.3 mph N2.1 kmh N 4.3 mph6.9 kmh 29.34 in993.6 mb 0.01 in0.3 mm 0.00 in/hr0.0 mm/hr 0.21 in5.3 mm
11:51 AM 54.2°F12.3°C 52.7°F11.5°C 95% 1.8 mph NE2.9 kmh NE 4.3 mph6.9 kmh 29.34 in993.6 mb 0.01 in0.3 mm 0.00 in/hr0.0 mm/hr 0.21 in5.3 mm
11:46 AM 54.4°F12.4°C 53.2°F11.8°C 96% 1.5 mph NNE2.4 kmh NNE 2.7 mph4.3 kmh 29.34 in993.6 mb 0.01 in0.3 mm 0.00 in/hr0.0 mm/hr 0.21 in5.3 mm
11:41 AM 54.7°F12.6°C 53.3°F11.8°C 95% 1.1 mph N1.8 kmh N 2.2 mph3.5 kmh 29.34 in993.6 mb 0.01 in0.3 mm 0.00 in/hr0.0 mm/hr 0.21 in5.3 mm
11:36 AM 54.5°F12.5°C 53.4°F11.9°C 96% 0.9 mph NNE1.4 kmh NNE 2.2 mph3.5 kmh 29.34 in993.6 mb 0.01 in0.3 mm 0.00 in/hr0.0 mm/hr 0.21 in5.3 mm
11:31 AM 54.5°F12.5°C 53.4°F11.9°C 96% 1.6 mph N2.6 kmh N 2.7 mph4.3 kmh 29.34 in993.6 mb 0.01 in0.3 mm 0.12 in/hr3.0 mm/hr 0.21 in5.3 mm
11:26 AM 54.4°F12.4°C 53.2°F11.8°C 96% 1.0 mph N1.6 kmh N 2.7 mph4.3 kmh 29.34 in993.6 mb 0.00 in0.0 mm 0.00 in/hr0.0 mm/hr 0.20 in5.1 mm
11:21 AM 54.7°F12.6°C 53.6°F12.0°C 96% 1.4 mph N2.3 kmh N 1.8 mph2.9 kmh 29.34 in993.6 mb 0.00 in0.0 mm 0.00 in/hr0.0 mm/hr 0.20 in5.1 mm
11:16 AM 54.7°F12.6°C 53.6°F12.0°C 96% 1.0 mph NNE1.6 kmh NNE 2.0 mph3.2 kmh 29.34 in993.6 mb 0.00 in0.0 mm 0.00 in/hr0.0 mm/hr 0.20 in5.1 mm
11:11 AM 54.5°F12.5°C 53.4°F11.9°C 96% 0.8 mph NE1.3 kmh NE 2.5 mph4.0 kmh 29.34 in993.6 mb 0.00 in0.0 mm 0.00 in/hr0.0 mm/hr 0.20 in5.1 mm
11:06 AM 54.7°F12.6°C 53.3°F11.8°C 95% 0.9 mph NNE1.4 kmh NNE 2.5 mph4.0 kmh 29.34 in993.6 mb 0.00 in0.0 mm 0.00 in/hr0.0 mm/hr 0.20 in5.1 mm
11:01 AM 54.9°F12.7°C 53.5°F11.9°C 95% 0.5 mph N0.8 kmh N 1.8 mph2.9 kmh 29.34 in993.6 mb 0.00 in0.0 mm 0.00 in/hr0.0 mm/hr 0.20 in5.1 mm
10:56 AM 54.9°F12.7°C 53.5°F11.9°C 95% 0.9 mph E1.4 kmh E 1.8 mph2.9 kmh 29.34 in993.6 mb 0.00 in0.0 mm 0.00 in/hr0.0 mm/hr 0.20 in5.1 mm
10:51 AM 54.9°F12.7°C 53.5°F11.9°C 95% 0.5 mph NE0.8 kmh NE 3.4 mph5.5 kmh 29.34 in993.6 mb 0.00 in0.0 mm 0.00 in/hr0.0 mm/hr 0.20 in5.1 mm
10:46 AM 54.7°F12.6°C 53.3°F11.8°C 95% 1.5 mph SE2.4 kmh SE 3.4 mph5.5 kmh 29.34 in993.6 mb 0.00 in0.0 mm 0.00 in/hr0.0 mm/hr 0.20 in5.1 mm
10:41 AM 54.5°F12.5°C 53.1°F11.7°C 95% 0.7 mph ESE1.1 kmh ESE 3.6 mph5.8 kmh 29.34 in993.6 mb 0.00 in0.0 mm 0.00 in/hr0.0 mm/hr 0.20 in5.1 mm
10:36 AM 54.7°F12.6°C 53.3°F11.8°C 95% 2.2 mph ESE3.5 kmh ESE 3.6 mph5.8 kmh 29.34 in993.6 mb 0.00 in0.0 mm 0.00 in/hr0.0 mm/hr 0.20 in5.1 mm
10:31 AM 54.7°F12.6°C 53.3°F11.8°C 95% 1.0 mph SE1.6 kmh SE 2.0 mph3.2 kmh 29.34 in993.6 mb 0.00 in0.0 mm 0.00 in/hr0.0 mm/hr 0.20 in5.1 mm
10:26 AM 54.7°F12.6°C 53.3°F11.8°C 95% 0.3 mph NNW0.5 kmh NNW 3.8 mph6.1 kmh 29.34 in993.6 mb 0.00 in0.0 mm 0.00 in/hr0.0 mm/hr 0.20 in5.1 mm
10:21 AM 54.7°F12.6°C 53.3°F11.8°C 95% 1.6 mph SE2.6 kmh SE 4.0 mph6.4 kmh 29.33 in993.2 mb 0.00 in0.0 mm 0.00 in/hr0.0 mm/hr 0.20 in5.1 mm
10:16 AM 55.1°F12.8°C 53.6°F12.0°C 95% 1.5 mph ESE2.4 kmh ESE 4.0 mph6.4 kmh 29.34 in993.6 mb 0.00 in0.0 mm 0.00 in/hr0.0 mm/hr 0.20 in5.1 mm
10:11 AM 54.9°F12.7°C 53.5°F11.9°C 95% 0.6 mph E1.0 kmh E 4.0 mph6.4 kmh 29.34 in993.6 mb 0.00 in0.0 mm 0.00 in/hr0.0 mm/hr 0.20 in5.1 mm
10:06 AM 55.1°F12.8°C 53.6°F12.0°C 95% 1.8 mph E2.9 kmh E 3.4 mph5.5 kmh 29.34 in993.6 mb 0.00 in0.0 mm 0.00 in/hr0.0 mm/hr 0.20 in5.1 mm
10:01 AM 55.1°F12.8°C 53.9°F12.2°C 96% 1.3 mph E2.1 kmh E 2.7 mph4.3 kmh 29.33 in993.2 mb 0.00 in0.0 mm 0.00 in/hr0.0 mm/hr 0.20 in5.1 mm
09:56 AM 55.1°F12.8°C 53.6°F12.0°C 95% 1.2 mph E1.9 kmh E 2.5 mph4.0 kmh 29.34 in993.6 mb 0.00 in0.0 mm 0.00 in/hr0.0 mm/hr 0.20 in5.1 mm
09:51 AM 54.7°F12.6°C 53.6°F12.0°C 96% 1.1 mph N1.8 kmh N 2.5 mph4.0 kmh 29.33 in993.2 mb 0.00 in0.0 mm 0.00 in/hr0.0 mm/hr 0.20 in5.1 mm
09:46 AM 54.7°F12.6°C 53.6°F12.0°C 96% 1.1 mph SE1.8 kmh SE 2.7 mph4.3 kmh 29.33 in993.2 mb 0.00 in0.0 mm 0.00 in/hr0.0 mm/hr 0.20 in5.1 mm
09:41 AM 54.7°F12.6°C 53.6°F12.0°C 96% 0.5 mph NE0.8 kmh NE 2.7 mph4.3 kmh 29.34 in993.6 mb 0.00 in0.0 mm 0.00 in/hr0.0 mm/hr 0.20 in5.1 mm
09:36 AM 54.7°F12.6°C 53.6°F12.0°C 96% 1.3 mph ENE2.1 kmh ENE 2.5 mph4.0 kmh 29.33 in993.2 mb 0.00 in0.0 mm 0.00 in/hr0.0 mm/hr 0.20 in5.1 mm
09:31 AM 54.7°F12.6°C 53.6°F12.0°C 96% 1.1 mph E1.8 kmh E 2.5 mph4.0 kmh 29.33 in993.2 mb 0.00 in0.0 mm 0.00 in/hr0.0 mm/hr 0.20 in5.1 mm
09:26 AM 54.7°F12.6°C 53.6°F12.0°C 96% 1.3 mph E2.1 kmh E 3.4 mph5.5 kmh 29.33 in993.2 mb 0.00 in0.0 mm 0.00 in/hr0.0 mm/hr 0.20 in5.1 mm
09:21 AM 54.5°F12.5°C 53.4°F11.9°C 96% 0.2 mph SE0.3 kmh SE 3.4 mph5.5 kmh 29.33 in993.2 mb 0.00 in0.0 mm 0.00 in/hr0.0 mm/hr 0.20 in5.1 mm
09:16 AM 54.5°F12.5°C 53.4°F11.9°C 96% 0.8 mph E1.3 kmh E 1.1 mph1.8 kmh 29.33 in993.2 mb 0.00 in0.0 mm 0.00 in/hr0.0 mm/hr 0.20 in5.1 mm
09:11 AM 54.5°F12.5°C 53.4°F11.9°C 96% 0.5 mph N0.8 kmh N 1.6 mph2.6 kmh 29.33 in993.2 mb 0.00 in0.0 mm 0.00 in/hr0.0 mm/hr 0.20 in5.1 mm
09:06 AM 54.5°F12.5°C 53.4°F11.9°C 96% 0.8 mph E1.3 kmh E 2.0 mph3.2 kmh 29.32 in992.9 mb 0.00 in0.0 mm 0.00 in/hr0.0 mm/hr 0.20 in5.1 mm
09:01 AM 54.7°F12.6°C 53.6°F12.0°C 96% 0.6 mph NW1.0 kmh NW 2.0 mph3.2 kmh 29.33 in993.2 mb 0.00 in0.0 mm 0.00 in/hr0.0 mm/hr 0.20 in5.1 mm
08:56 AM 54.7°F12.6°C 53.6°F12.0°C 96% 0.6 mph N1.0 kmh N 0.9 mph1.4 kmh 29.32 in992.9 mb 0.00 in0.0 mm 0.00 in/hr0.0 mm/hr 0.20 in5.1 mm
08:51 AM 54.5°F12.5°C 53.4°F11.9°C 96% 0.4 mph 0.6 kmh 1.1 mph1.8 kmh 29.32 in992.9 mb 0.00 in0.0 mm 0.00 in/hr0.0 mm/hr 0.20 in5.1 mm
08:46 AM 54.5°F12.5°C 53.4°F11.9°C 96% 0.6 mph N1.0 kmh N 1.1 mph1.8 kmh 29.32 in992.9 mb 0.00 in0.0 mm 0.00 in/hr0.0 mm/hr 0.20 in5.1 mm
08:41 AM 54.5°F12.5°C 53.4°F11.9°C 96% Calm Calm 1.1 mph1.8 kmh 29.32 in992.9 mb 0.00 in0.0 mm 0.00 in/hr0.0 mm/hr 0.20 in5.1 mm
08:36 AM 54.5°F12.5°C 53.4°F11.9°C 96% 0.8 mph NNE1.3 kmh NNE 1.1 mph1.8 kmh 29.32 in992.9 mb 0.00 in0.0 mm 0.00 in/hr0.0 mm/hr 0.20 in5.1 mm
08:31 AM 54.4°F12.4°C 53.2°F11.8°C 96% 0.7 mph 1.1 kmh 1.1 mph1.8 kmh 29.32 in992.9 mb 0.00 in0.0 mm 0.00 in/hr0.0 mm/hr 0.20 in5.1 mm
08:26 AM 54.4°F12.4°C 53.2°F11.8°C 96% 0.4 mph 0.6 kmh 1.1 mph1.8 kmh 29.32 in992.9 mb 0.00 in0.0 mm 0.00 in/hr0.0 mm/hr 0.20 in5.1 mm
08:21 AM 54.2°F12.3°C 53.0°F11.7°C 96% 0.7 mph 1.1 kmh 1.1 mph1.8 kmh 29.32 in992.9 mb 0.00 in0.0 mm 0.00 in/hr0.0 mm/hr 0.20 in5.1 mm
08:16 AM 54.0°F12.2°C 52.8°F11.6°C 96% 0.6 mph 1.0 kmh 1.1 mph1.8 kmh 29.32 in992.9 mb 0.00 in0.0 mm 0.00 in/hr0.0 mm/hr 0.20 in5.1 mm
08:11 AM 54.0°F12.2°C 52.8°F11.6°C 96% 0.5 mph 0.8 kmh 1.1 mph1.8 kmh 29.32 in992.9 mb 0.00 in0.0 mm 0.00 in/hr0.0 mm/hr 0.20 in5.1 mm
08:06 AM 54.0°F12.2°C 52.8°F11.6°C 96% 0.5 mph 0.8 kmh 1.1 mph1.8 kmh 29.32 in992.9 mb 0.00 in0.0 mm 0.00 in/hr0.0 mm/hr 0.20 in5.1 mm
08:01 AM 53.8°F12.1°C 52.7°F11.5°C 96% 0.4 mph N0.6 kmh N 1.1 mph1.8 kmh 29.32 in992.9 mb 0.00 in0.0 mm 0.00 in/hr0.0 mm/hr 0.20 in5.1 mm
07:56 AM 53.8°F12.1°C 52.7°F11.5°C 96% 0.8 mph 1.3 kmh 1.1 mph1.8 kmh 29.32 in992.9 mb 0.00 in0.0 mm 0.00 in/hr0.0 mm/hr 0.20 in5.1 mm
07:51 AM 53.6°F12.0°C 52.5°F11.4°C 96% 0.3 mph 0.5 kmh 1.1 mph1.8 kmh 29.31 in992.6 mb 0.00 in0.0 mm 0.00 in/hr0.0 mm/hr 0.20 in5.1 mm
07:46 AM 53.6°F12.0°C 52.5°F11.4°C 96% 0.4 mph N0.6 kmh N 1.1 mph1.8 kmh 29.32 in992.9 mb 0.00 in0.0 mm 0.00 in/hr0.0 mm/hr 0.20 in5.1 mm
07:40 AM 53.6°F12.0°C 52.5°F11.4°C 96% 0.7 mph N1.1 kmh N 2.0 mph3.2 kmh 29.31 in992.6 mb 0.00 in0.0 mm 0.00 in/hr0.0 mm/hr 0.20 in5.1 mm
07:36 AM 53.6°F12.0°C 52.5°F11.4°C 96% 1.3 mph N2.1 kmh N 2.2 mph3.5 kmh 29.31 in992.6 mb 0.00 in0.0 mm 0.00 in/hr0.0 mm/hr 0.20 in5.1 mm
07:30 AM 53.6°F12.0°C 52.5°F11.4°C 96% 1.2 mph N1.9 kmh N 2.2 mph3.5 kmh 29.31 in992.6 mb 0.00 in0.0 mm 0.00 in/hr0.0 mm/hr 0.20 in5.1 mm
07:25 AM 53.6°F12.0°C 52.5°F11.4°C 96% 1.5 mph N2.4 kmh N 1.8 mph2.9 kmh 29.31 in992.6 mb 0.00 in0.0 mm 0.00 in/hr0.0 mm/hr 0.20 in5.1 mm
07:20 AM 53.6°F12.0°C 52.5°F11.4°C 96% 0.8 mph 1.3 kmh 1.1 mph1.8 kmh 29.31 in992.6 mb 0.00 in0.0 mm 0.00 in/hr0.0 mm/hr 0.20 in5.1 mm
07:15 AM 53.6°F12.0°C 52.5°F11.4°C 96% 0.8 mph N1.3 kmh N 1.1 mph1.8 kmh 29.31 in992.6 mb 0.00 in0.0 mm 0.00 in/hr0.0 mm/hr 0.20 in5.1 mm
07:10 AM 53.6°F12.0°C 52.5°F11.4°C 96% 0.8 mph N1.3 kmh N 1.1 mph1.8 kmh 29.31 in992.6 mb 0.00 in0.0 mm 0.00 in/hr0.0 mm/hr 0.20 in5.1 mm
07:05 AM 53.6°F12.0°C 52.5°F11.4°C 96% 0.7 mph 1.1 kmh 1.1 mph1.8 kmh 29.31 in992.6 mb 0.00 in0.0 mm 0.00 in/hr0.0 mm/hr 0.20 in5.1 mm
07:00 AM 53.6°F12.0°C 52.5°F11.4°C 96% 0.7 mph N1.1 kmh N 1.1 mph1.8 kmh 29.31 in992.6 mb 0.00 in0.0 mm 0.00 in/hr0.0 mm/hr 0.20 in5.1 mm
06:55 AM 53.6°F12.0°C 52.5°F11.4°C 96% 0.6 mph 1.0 kmh 1.1 mph1.8 kmh 29.31 in992.6 mb 0.00 in0.0 mm 0.00 in/hr0.0 mm/hr 0.20 in5.1 mm
06:50 AM 53.6°F12.0°C 52.5°F11.4°C 96% 0.4 mph 0.6 kmh 1.8 mph2.9 kmh 29.30 in992.2 mb 0.00 in0.0 mm 0.00 in/hr0.0 mm/hr 0.20 in5.1 mm
06:45 AM 53.6°F12.0°C 52.5°F11.4°C 96% 1.4 mph N2.3 kmh N 1.8 mph2.9 kmh 29.30 in992.2 mb 0.00 in0.0 mm 0.00 in/hr0.0 mm/hr 0.20 in5.1 mm
06:40 AM 53.6°F12.0°C 52.5°F11.4°C 96% 0.8 mph 1.3 kmh 1.8 mph2.9 kmh 29.30 in992.2 mb 0.00 in0.0 mm 0.00 in/hr0.0 mm/hr 0.20 in5.1 mm
06:35 AM 53.6°F12.0°C 52.5°F11.4°C 96% 0.5 mph 0.8 kmh 0.9 mph1.4 kmh 29.30 in992.2 mb 0.00 in0.0 mm 0.00 in/hr0.0 mm/hr 0.20 in5.1 mm
06:30 AM 53.5°F11.9°C 52.3°F11.3°C 96% 0.3 mph 0.5 kmh 0.9 mph1.4 kmh 29.30 in992.2 mb 0.00 in0.0 mm 0.00 in/hr0.0 mm/hr 0.20 in5.1 mm
06:25 AM 53.5°F11.9°C 52.3°F11.3°C 96% Calm Calm 1.3 mph2.1 kmh 29.30 in992.2 mb 0.00 in0.0 mm 0.00 in/hr0.0 mm/hr 0.20 in5.1 mm
06:20 AM 53.5°F11.9°C 52.3°F11.3°C 96% 0.6 mph 1.0 kmh 1.3 mph2.1 kmh 29.30 in992.2 mb 0.00 in0.0 mm 0.00 in/hr0.0 mm/hr 0.20 in5.1 mm
06:15 AM 53.5°F11.9°C 52.3°F11.3°C 96% 0.6 mph 1.0 kmh 1.1 mph1.8 kmh 29.30 in992.2 mb 0.00 in0.0 mm 0.00 in/hr0.0 mm/hr 0.20 in5.1 mm
06:10 AM 53.5°F11.9°C 52.3°F11.3°C 96% 0.4 mph 0.6 kmh 0.7 mph1.1 kmh 29.30 in992.2 mb 0.00 in0.0 mm 0.00 in/hr0.0 mm/hr 0.20 in5.1 mm
06:05 AM 53.5°F11.9°C 52.3°F11.3°C 96% Calm Calm 0.4 mph0.6 kmh 29.30 in992.2 mb 0.00 in0.0 mm 0.00 in/hr0.0 mm/hr 0.20 in5.1 mm
06:00 AM 53.5°F11.9°C 52.3°F11.3°C 96% Calm Calm 0.7 mph1.1 kmh 29.30 in992.2 mb 0.00 in0.0 mm 0.00 in/hr0.0 mm/hr 0.20 in5.1 mm
05:55 AM 53.5°F11.9°C 52.0°F11.1°C 95% Calm Calm 0.7 mph1.1 kmh 29.30 in992.2 mb 0.00 in0.0 mm 0.00 in/hr0.0 mm/hr 0.20 in5.1 mm
05:50 AM 53.5°F11.9°C 52.3°F11.3°C 96% 0.6 mph 1.0 kmh 0.7 mph1.1 kmh 29.30 in992.2 mb 0.00 in0.0 mm 0.00 in/hr0.0 mm/hr 0.20 in5.1 mm
05:45 AM 53.5°F11.9°C 52.3°F11.3°C 96% Calm Calm 0.4 mph0.6 kmh 29.30 in992.2 mb 0.00 in0.0 mm 0.00 in/hr0.0 mm/hr 0.20 in5.1 mm
05:40 AM 53.5°F11.9°C 52.3°F11.3°C 96% 0.2 mph 0.3 kmh 0.4 mph0.6 kmh 29.30 in992.2 mb 0.00 in0.0 mm 0.00 in/hr0.0 mm/hr 0.20 in5.1 mm
05:35 AM 53.5°F11.9°C 52.3°F11.3°C 96% 0.2 mph 0.3 kmh 0.4 mph0.6 kmh 29.30 in992.2 mb 0.00 in0.0 mm 0.00 in/hr0.0 mm/hr 0.20 in5.1 mm
05:30 AM 53.5°F11.9°C 52.3°F11.3°C 96% Calm Calm 0.4 mph0.6 kmh 29.30 in992.2 mb 0.00 in0.0 mm 0.00 in/hr0.0 mm/hr 0.20 in5.1 mm
05:25 AM 53.5°F11.9°C 52.3°F11.3°C 96% 0.3 mph SSE0.5 kmh SSE 0.9 mph1.4 kmh 29.30 in992.2 mb 0.00 in0.0 mm 0.00 in/hr0.0 mm/hr 0.20 in5.1 mm
05:20 AM 53.5°F11.9°C 52.3°F11.3°C 96% 0.3 mph 0.5 kmh 0.9 mph1.4 kmh 29.30 in992.2 mb 0.00 in0.0 mm 0.00 in/hr0.0 mm/hr 0.20 in5.1 mm
05:15 AM 53.5°F11.9°C 52.3°F11.3°C 96% 0.5 mph 0.8 kmh 0.9 mph1.4 kmh 29.30 in992.2 mb 0.00 in0.0 mm 0.00 in/hr0.0 mm/hr 0.20 in5.1 mm
05:10 AM 53.5°F11.9°C 52.0°F11.1°C 95% 0.4 mph 0.6 kmh 0.7 mph1.1 kmh 29.30 in992.2 mb 0.00 in0.0 mm 0.00 in/hr0.0 mm/hr 0.20 in5.1 mm
05:05 AM 53.5°F11.9°C 52.3°F11.3°C 96% Calm Calm -- 29.30 in992.2 mb 0.00 in0.0 mm 0.00 in/hr0.0 mm/hr 0.20 in5.1 mm
05:00 AM 53.5°F11.9°C 52.0°F11.1°C 95% Calm Calm -- 29.30 in992.2 mb 0.00 in0.0 mm 0.00 in/hr0.0 mm/hr 0.20 in5.1 mm
04:55 AM 53.5°F11.9°C 52.0°F11.1°C 95% Calm Calm 0.4 mph0.6 kmh 29.30 in992.2 mb 0.00 in0.0 mm 0.00 in/hr0.0 mm/hr 0.20 in5.1 mm
04:50 AM 53.3°F11.8°C 51.8°F11.0°C 95% 0.3 mph 0.5 kmh 0.4 mph0.6 kmh 29.30 in992.2 mb 0.00 in0.0 mm 0.00 in/hr0.0 mm/hr 0.20 in5.1 mm
04:45 AM 53.3°F11.8°C 52.1°F11.2°C 96% 0.3 mph 0.5 kmh 0.7 mph1.1 kmh 29.30 in992.2 mb 0.00 in0.0 mm 0.00 in/hr0.0 mm/hr 0.20 in5.1 mm
04:40 AM 53.3°F11.8°C 51.8°F11.0°C 95% Calm Calm 0.7 mph1.1 kmh 29.30 in992.2 mb 0.00 in0.0 mm 0.00 in/hr0.0 mm/hr 0.20 in5.1 mm
04:35 AM 53.3°F11.8°C 52.1°F11.2°C 96% 0.4 mph 0.6 kmh 0.7 mph1.1 kmh 29.30 in992.2 mb 0.00 in0.0 mm 0.00 in/hr0.0 mm/hr 0.20 in5.1 mm
04:30 AM 53.3°F11.8°C 52.1°F11.2°C 96% 0.3 mph 0.5 kmh 0.9 mph1.4 kmh 29.30 in992.2 mb 0.00 in0.0 mm 0.00 in/hr0.0 mm/hr 0.20 in5.1 mm
04:25 AM 53.3°F11.8°C 51.8°F11.0°C 95% Calm Calm 0.9 mph1.4 kmh 29.30 in992.2 mb 0.00 in0.0 mm 0.00 in/hr0.0 mm/hr 0.20 in5.1 mm
04:20 AM 53.3°F11.8°C 51.8°F11.0°C 95% 0.4 mph 0.6 kmh 0.7 mph1.1 kmh 29.30 in992.2 mb 0.00 in0.0 mm 0.00 in/hr0.0 mm/hr 0.20 in5.1 mm
04:15 AM 53.3°F11.8°C 51.8°F11.0°C 95% Calm Calm 0.7 mph1.1 kmh 29.30 in992.2 mb 0.00 in0.0 mm 0.00 in/hr0.0 mm/hr 0.20 in5.1 mm
04:10 AM 53.3°F11.8°C 51.8°F11.0°C 95% Calm Calm 0.7 mph1.1 kmh 29.30 in992.2 mb 0.00 in0.0 mm 0.00 in/hr0.0 mm/hr 0.20 in5.1 mm
04:05 AM 53.3°F11.8°C 52.1°F11.2°C 96% 0.6 mph 1.0 kmh 0.7 mph1.1 kmh 29.30 in992.2 mb 0.00 in0.0 mm 0.00 in/hr0.0 mm/hr 0.20 in5.1 mm
04:00 AM 53.3°F11.8°C 51.8°F11.0°C 95% 0.2 mph 0.3 kmh 0.4 mph0.6 kmh 29.30 in992.2 mb 0.00 in0.0 mm 0.00 in/hr0.0 mm/hr 0.20 in5.1 mm
03:55 AM 53.3°F11.8°C 51.8°F11.0°C 95% Calm Calm 0.7 mph1.1 kmh 29.30 in992.2 mb 0.00 in0.0 mm 0.00 in/hr0.0 mm/hr 0.20 in5.1 mm
03:50 AM 53.3°F11.8°C 51.8°F11.0°C 95% 0.3 mph 0.5 kmh 0.9 mph1.4 kmh 29.30 in992.2 mb 0.00 in0.0 mm 0.00 in/hr0.0 mm/hr 0.20 in5.1 mm
03:45 AM 53.3°F11.8°C 51.8°F11.0°C 95% 0.6 mph 1.0 kmh 0.9 mph1.4 kmh 29.30 in992.2 mb 0.00 in0.0 mm 0.00 in/hr0.0 mm/hr 0.20 in5.1 mm
03:40 AM 53.3°F11.8°C 52.1°F11.2°C 96% 0.5 mph 0.8 kmh 0.7 mph1.1 kmh 29.31 in992.6 mb 0.00 in0.0 mm 0.00 in/hr0.0 mm/hr 0.20 in5.1 mm
03:35 AM 53.1°F11.7°C 51.7°F10.9°C 95% Calm Calm 0.9 mph1.4 kmh 29.31 in992.6 mb 0.00 in0.0 mm 0.00 in/hr0.0 mm/hr 0.20 in5.1 mm
03:30 AM 53.1°F11.7°C 51.9°F11.1°C 96% 0.4 mph 0.6 kmh 1.1 mph1.8 kmh 29.31 in992.6 mb 0.00 in0.0 mm 0.00 in/hr0.0 mm/hr 0.20 in5.1 mm
03:25 AM 53.1°F11.7°C 51.7°F10.9°C 95% 0.3 mph 0.5 kmh 1.1 mph1.8 kmh 29.31 in992.6 mb 0.00 in0.0 mm 0.00 in/hr0.0 mm/hr 0.20 in5.1 mm
03:20 AM 53.1°F11.7°C 51.7°F10.9°C 95% 0.3 mph NNE0.5 kmh NNE 0.7 mph1.1 kmh 29.31 in992.6 mb 0.00 in0.0 mm 0.00 in/hr0.0 mm/hr 0.20 in5.1 mm
03:15 AM 53.1°F11.7°C 51.7°F10.9°C 95% 0.4 mph NNE0.6 kmh NNE 0.4 mph0.6 kmh 29.31 in992.6 mb 0.00 in0.0 mm 0.00 in/hr0.0 mm/hr 0.20 in5.1 mm
03:10 AM 53.1°F11.7°C 51.7°F10.9°C 95% 0.4 mph NNE0.6 kmh NNE 1.1 mph1.8 kmh 29.31 in992.6 mb 0.00 in0.0 mm 0.00 in/hr0.0 mm/hr 0.20 in5.1 mm
03:04 AM 53.1°F11.7°C 51.7°F10.9°C 95% 0.3 mph 0.5 kmh 1.1 mph1.8 kmh 29.31 in992.6 mb 0.00 in0.0 mm 0.00 in/hr0.0 mm/hr 0.20 in5.1 mm
02:59 AM 53.1°F11.7°C 51.7°F10.9°C 95% 0.7 mph 1.1 kmh 1.1 mph1.8 kmh 29.30 in992.2 mb 0.00 in0.0 mm 0.00 in/hr0.0 mm/hr 0.20 in5.1 mm
02:55 AM 53.1°F11.7°C 51.7°F10.9°C 95% 0.9 mph 1.4 kmh 1.1 mph1.8 kmh 29.30 in992.2 mb 0.00 in0.0 mm 0.00 in/hr0.0 mm/hr 0.20 in5.1 mm
02:49 AM 53.1°F11.7°C 51.7°F10.9°C 95% 0.3 mph 0.5 kmh 1.6 mph2.6 kmh 29.30 in992.2 mb 0.00 in0.0 mm 0.00 in/hr0.0 mm/hr 0.20 in5.1 mm
02:44 AM 53.1°F11.7°C 51.7°F10.9°C 95% 0.8 mph 1.3 kmh 1.6 mph2.6 kmh 29.30 in992.2 mb 0.00 in0.0 mm 0.00 in/hr0.0 mm/hr 0.20 in5.1 mm
02:39 AM 53.1°F11.7°C 51.7°F10.9°C 95% 0.4 mph 0.6 kmh 1.3 mph2.1 kmh 29.30 in992.2 mb 0.00 in0.0 mm 0.00 in/hr0.0 mm/hr 0.20 in5.1 mm
02:34 AM 52.9°F11.6°C 51.5°F10.8°C 95% 0.8 mph 1.3 kmh 1.1 mph1.8 kmh 29.30 in992.2 mb 0.00 in0.0 mm 0.00 in/hr0.0 mm/hr 0.20 in5.1 mm
02:29 AM 52.9°F11.6°C 51.5°F10.8°C 95% 0.2 mph 0.3 kmh 0.9 mph1.4 kmh 29.30 in992.2 mb 0.00 in0.0 mm 0.00 in/hr0.0 mm/hr 0.20 in5.1 mm
02:24 AM 52.9°F11.6°C 51.5°F10.8°C 95% 0.6 mph NNE1.0 kmh NNE 0.9 mph1.4 kmh 29.30 in992.2 mb 0.00 in0.0 mm 0.00 in/hr0.0 mm/hr 0.20 in5.1 mm
02:19 AM 52.9°F11.6°C 51.5°F10.8°C 95% 0.5 mph 0.8 kmh 0.9 mph1.4 kmh 29.30 in992.2 mb 0.00 in0.0 mm 0.00 in/hr0.0 mm/hr 0.20 in5.1 mm
02:14 AM 52.9°F11.6°C 51.5°F10.8°C 95% Calm Calm 0.4 mph0.6 kmh 29.30 in992.2 mb 0.00 in0.0 mm 0.00 in/hr0.0 mm/hr 0.20 in5.1 mm
02:09 AM 52.9°F11.6°C 51.5°F10.8°C 95% 0.2 mph 0.3 kmh 0.4 mph0.6 kmh 29.31 in992.6 mb 0.00 in0.0 mm 0.00 in/hr0.0 mm/hr 0.20 in5.1 mm
02:04 AM 52.9°F11.6°C 51.5°F10.8°C 95% 0.3 mph 0.5 kmh 0.7 mph1.1 kmh 29.31 in992.6 mb 0.00 in0.0 mm 0.00 in/hr0.0 mm/hr 0.20 in5.1 mm
01:59 AM 52.9°F11.6°C 51.5°F10.8°C 95% 0.5 mph 0.8 kmh 1.1 mph1.8 kmh 29.31 in992.6 mb 0.00 in0.0 mm 0.00 in/hr0.0 mm/hr 0.20 in5.1 mm
01:54 AM 52.9°F11.6°C 51.5°F10.8°C 95% 0.6 mph 1.0 kmh 1.1 mph1.8 kmh 29.32 in992.9 mb 0.00 in0.0 mm 0.00 in/hr0.0 mm/hr 0.20 in5.1 mm
01:49 AM 52.9°F11.6°C 51.5°F10.8°C 95% 0.5 mph 0.8 kmh 0.9 mph1.4 kmh 29.32 in992.9 mb 0.00 in0.0 mm 0.00 in/hr0.0 mm/hr 0.20 in5.1 mm
01:44 AM 52.9°F11.6°C 51.5°F10.8°C 95% 0.4 mph 0.6 kmh 0.9 mph1.4 kmh 29.32 in992.9 mb 0.00 in0.0 mm 0.00 in/hr0.0 mm/hr 0.20 in5.1 mm
01:39 AM 52.9°F11.6°C 51.5°F10.8°C 95% 0.5 mph 0.8 kmh 1.1 mph1.8 kmh 29.32 in992.9 mb 0.00 in0.0 mm 0.00 in/hr0.0 mm/hr 0.20 in5.1 mm
01:34 AM 52.9°F11.6°C 51.5°F10.8°C 95% 0.6 mph 1.0 kmh 1.1 mph1.8 kmh 29.32 in992.9 mb 0.00 in0.0 mm 0.00 in/hr0.0 mm/hr 0.20 in5.1 mm
01:29 AM 52.9°F11.6°C 51.5°F10.8°C 95% 0.3 mph 0.5 kmh 0.7 mph1.1 kmh 29.33 in993.2 mb 0.00 in0.0 mm 0.00 in/hr0.0 mm/hr 0.20 in5.1 mm
01:24 AM 52.9°F11.6°C 51.5°F10.8°C 95% 0.2 mph 0.3 kmh 0.9 mph1.4 kmh 29.33 in993.2 mb 0.00 in0.0 mm 0.00 in/hr0.0 mm/hr 0.20 in5.1 mm
01:19 AM 52.9°F11.6°C 51.5°F10.8°C 95% 0.4 mph 0.6 kmh 0.9 mph1.4 kmh 29.33 in993.2 mb 0.01 in0.3 mm 0.00 in/hr0.0 mm/hr 0.20 in5.1 mm
01:14 AM 52.9°F11.6°C 51.5°F10.8°C 95% 0.4 mph 0.6 kmh 0.9 mph1.4 kmh 29.33 in993.2 mb 0.01 in0.3 mm 0.00 in/hr0.0 mm/hr 0.20 in5.1 mm
01:09 AM 52.9°F11.6°C 51.5°F10.8°C 95% 0.6 mph 1.0 kmh 1.1 mph1.8 kmh 29.33 in993.2 mb 0.02 in0.5 mm 0.00 in/hr0.0 mm/hr 0.20 in5.1 mm
01:04 AM 52.9°F11.6°C 51.5°F10.8°C 95% 0.3 mph 0.5 kmh 1.1 mph1.8 kmh 29.33 in993.2 mb 0.03 in0.8 mm 0.00 in/hr0.0 mm/hr 0.20 in5.1 mm
12:59 AM 52.9°F11.6°C 51.5°F10.8°C 95% 0.3 mph 0.5 kmh 1.1 mph1.8 kmh 29.33 in993.2 mb 0.05 in1.3 mm 0.00 in/hr0.0 mm/hr 0.20 in5.1 mm
12:54 AM 52.9°F11.6°C 51.5°F10.8°C 95% 0.6 mph N1.0 kmh N 1.1 mph1.8 kmh 29.33 in993.2 mb 0.07 in1.8 mm 0.00 in/hr0.0 mm/hr 0.20 in5.1 mm
12:49 AM 52.7°F11.5°C 51.3°F10.7°C 95% 0.6 mph 1.0 kmh 0.9 mph1.4 kmh 29.33 in993.2 mb 0.08 in2.0 mm 0.00 in/hr0.0 mm/hr 0.20 in5.1 mm
12:44 AM 52.7°F11.5°C 51.3°F10.7°C 95% 0.3 mph 0.5 kmh 0.9 mph1.4 kmh 29.33 in993.2 mb 0.09 in2.3 mm 0.00 in/hr0.0 mm/hr 0.20 in5.1 mm
12:39 AM 52.9°F11.6°C 51.5°F10.8°C 95% 0.3 mph 0.5 kmh 0.9 mph1.4 kmh 29.33 in993.2 mb 0.13 in3.3 mm 0.00 in/hr0.0 mm/hr 0.20 in5.1 mm
12:34 AM 52.9°F11.6°C 51.5°F10.8°C 95% 0.6 mph N1.0 kmh N 1.1 mph1.8 kmh 29.33 in993.2 mb 0.15 in3.8 mm 0.00 in/hr0.0 mm/hr 0.20 in5.1 mm
12:29 AM 52.9°F11.6°C 51.5°F10.8°C 95% 0.6 mph 1.0 kmh 1.3 mph2.1 kmh 29.33 in993.2 mb 0.16 in4.1 mm 0.00 in/hr0.0 mm/hr 0.20 in5.1 mm
12:24 AM 52.9°F11.6°C 51.5°F10.8°C 95% 1.0 mph 1.6 kmh 1.3 mph2.1 kmh 29.33 in993.2 mb 0.16 in4.1 mm 0.00 in/hr0.0 mm/hr 0.19 in4.8 mm
12:19 AM 52.9°F11.6°C 51.5°F10.8°C 95% 0.5 mph 0.8 kmh 1.1 mph1.8 kmh 29.34 in993.6 mb 0.17 in4.3 mm 0.00 in/hr0.0 mm/hr 0.19 in4.8 mm
12:14 AM 52.9°F11.6°C 51.5°F10.8°C 95% 0.8 mph 1.3 kmh 0.9 mph1.4 kmh 29.34 in993.6 mb 0.18 in4.6 mm 0.12 in/hr3.0 mm/hr 0.19 in4.8 mm
12:09 AM 52.9°F11.6°C 51.5°F10.8°C 95% 0.6 mph 1.0 kmh 0.9 mph1.4 kmh 29.35 in993.9 mb 0.17 in4.3 mm 0.12 in/hr3.0 mm/hr 0.18 in4.6 mm
12:04 AM 52.9°F11.6°C 51.5°F10.8°C 95% 0.5 mph 0.8 kmh 0.9 mph1.4 kmh 29.35 in993.9 mb 0.16 in4.1 mm 2.40 in/hr61.0 mm/hr 0.16 in4.1 mm